createdAt,value
2019-02-07T00:00:11.503Z,0
2019-02-07T00:01:11.583Z,0
2019-02-07T00:02:11.280Z,0
2019-02-07T00:03:11.974Z,0
2019-02-07T00:04:12.386Z,0
2019-02-07T00:05:12.792Z,0
2019-02-07T00:06:13.027Z,0
2019-02-07T00:07:14.011Z,0
2019-02-07T00:08:15.641Z,0
2019-02-07T00:09:16.768Z,0
2019-02-07T00:10:15.980Z,0
2019-02-07T00:11:16.113Z,0
2019-02-07T00:12:17.530Z,0
2019-02-07T00:13:18.600Z,0
2019-02-07T00:14:19.559Z,0
2019-02-07T00:15:20.537Z,0
2019-02-07T00:16:20.963Z,0
2019-02-07T00:17:24.604Z,0
2019-02-07T00:18:23.798Z,0
2019-02-07T00:19:24.021Z,0
2019-02-07T00:20:24.892Z,0
2019-02-07T00:21:26.300Z,0
2019-02-07T00:22:27.827Z,0
2019-02-07T00:23:27.510Z,0
2019-02-07T00:24:28.484Z,0
2019-02-07T00:25:29.486Z,0
2019-02-07T00:26:31.143Z,0
2019-02-07T00:27:30.647Z,0
2019-02-07T00:28:31.063Z,0
2019-02-07T00:29:31.478Z,0
2019-02-07T00:30:32.824Z,0
2019-02-07T00:31:33.060Z,0
2019-02-07T00:32:34.304Z,0
2019-02-07T00:33:35.000Z,0
2019-02-07T00:34:37.064Z,0
2019-02-07T00:35:36.723Z,0
2019-02-07T00:36:37.140Z,0
2019-02-07T00:37:37.825Z,0
2019-02-07T00:38:37.791Z,0
2019-02-07T00:39:38.770Z,0
2019-02-07T00:40:39.594Z,0
2019-02-07T00:41:40.582Z,0
2019-02-07T00:42:40.522Z,0
2019-02-07T00:43:42.348Z,0
2019-02-07T00:44:57.308Z,0
2019-02-07T00:45:53.172Z,0
2019-02-07T00:46:54.589Z,0
2019-02-07T00:47:55.602Z,0
2019-02-07T00:48:56.018Z,0
2019-02-07T00:49:57.273Z,0
2019-02-07T00:50:57.238Z,0
2019-02-07T00:51:57.650Z,0
2019-02-07T00:52:59.768Z,0
2019-02-07T00:53:59.561Z,0
2019-02-07T00:55:01.370Z,0
2019-02-07T00:56:01.793Z,0
2019-02-07T00:57:02.506Z,0
2019-02-07T00:58:03.523Z,0
2019-02-07T00:59:03.945Z,0
2019-02-07T01:00:04.363Z,0
2019-02-07T01:01:05.790Z,0
2019-02-07T01:02:08.257Z,0
2019-02-07T01:03:06.862Z,0
2019-02-07T01:04:08.282Z,0
2019-02-07T01:05:09.075Z,0
2019-02-07T01:06:09.903Z,0
2019-02-07T01:07:11.149Z,0
2019-02-07T01:08:12.128Z,0
2019-02-07T01:09:12.271Z,0
2019-02-07T01:10:12.971Z,0
2019-02-07T01:11:16.072Z,0
2019-02-07T01:12:13.653Z,0
2019-02-07T01:13:14.703Z,0
2019-02-07T01:14:15.682Z,0
2019-02-07T01:15:16.677Z,0
2019-02-07T01:16:17.777Z,0
2019-02-07T01:17:18.753Z,0
2019-02-07T01:18:18.897Z,0
2019-02-07T01:19:22.516Z,0
2019-02-07T01:20:21.226Z,0
2019-02-07T01:21:22.199Z,0
2019-02-07T01:22:22.897Z,0
2019-02-07T01:23:23.309Z,0
2019-02-07T01:24:23.999Z,0
2019-02-07T01:25:25.715Z,0
2019-02-07T01:26:25.834Z,0
2019-02-07T01:27:27.103Z,0
2019-02-07T01:28:27.530Z,0
2019-02-07T01:29:28.942Z,0
2019-02-07T01:30:29.932Z,0
2019-02-07T01:31:30.630Z,0
2019-02-07T01:32:31.606Z,0
2019-02-07T01:33:32.021Z,0
2019-02-07T01:34:32.731Z,0
2019-02-07T01:35:33.257Z,0
2019-02-07T01:36:36.148Z,0
2019-02-07T01:37:34.448Z,0
2019-02-07T01:38:35.886Z,0
2019-02-07T01:39:36.577Z,0
2019-02-07T01:40:37.555Z,0
2019-02-07T01:41:37.979Z,0
2019-02-07T01:42:38.118Z,0
2019-02-07T01:43:39.255Z,0
2019-02-07T01:44:41.222Z,0
2019-02-07T01:45:42.226Z,0
2019-02-07T01:46:42.684Z,0
2019-02-07T01:47:43.647Z,0
2019-02-07T01:48:44.066Z,0
2019-02-07T01:49:45.137Z,0
2019-02-07T01:50:45.559Z,0
2019-02-07T01:51:45.699Z,0
2019-02-07T01:52:46.914Z,0
2019-02-07T01:53:49.840Z,0
2019-02-07T01:54:48.665Z,0
2019-02-07T01:55:49.372Z,0
2019-02-07T01:56:49.964Z,0
2019-02-07T01:57:50.388Z,0
2019-02-07T01:58:50.816Z,0
2019-02-07T01:59:51.521Z,0
2019-02-07T02:00:51.951Z,0
2019-02-07T02:01:54.906Z,0
2019-02-07T02:02:53.676Z,0
2019-02-07T02:03:54.178Z,0
2019-02-07T02:04:55.161Z,0
2019-02-07T02:05:56.142Z,0
2019-02-07T02:06:56.936Z,0
2019-02-07T02:07:57.358Z,0
2019-02-07T02:08:57.791Z,0
2019-02-07T02:09:58.585Z,0
2019-02-07T02:10:59.293Z,0
2019-02-07T02:11:59.907Z,0
2019-02-07T02:13:01.337Z,0
2019-02-07T02:14:03.046Z,0
2019-02-07T02:15:04.021Z,0
2019-02-07T02:16:04.530Z,0
2019-02-07T02:17:04.692Z,0
2019-02-07T02:18:05.990Z,0
2019-02-07T02:19:07.689Z,0
2019-02-07T02:20:07.122Z,0
2019-02-07T02:21:08.088Z,0
2019-02-07T02:22:08.508Z,0
2019-02-07T02:23:09.209Z,0
2019-02-07T02:24:09.346Z,0
2019-02-07T02:25:10.491Z,0
2019-02-07T02:26:12.190Z,0
2019-02-07T02:27:12.610Z,0
2019-02-07T02:28:15.521Z,0
2019-02-07T02:29:15.734Z,0
2019-02-07T02:30:16.599Z,0
2019-02-07T02:31:17.606Z,0
2019-02-07T02:32:18.984Z,0
2019-02-07T02:33:19.707Z,0
2019-02-07T02:34:20.929Z,0
2019-02-07T02:35:21.899Z,0
2019-02-07T02:36:23.936Z,0
2019-02-07T02:37:24.083Z,0
2019-02-07T02:38:25.336Z,0
2019-02-07T02:39:26.364Z,0
2019-02-07T02:40:26.374Z,0
2019-02-07T02:41:27.980Z,0
2019-02-07T02:42:27.780Z,0
2019-02-07T02:43:28.538Z,0
2019-02-07T02:44:29.563Z,0
2019-02-07T02:45:45.125Z,0
2019-02-07T02:46:45.432Z,0
2019-02-07T02:47:47.102Z,0
2019-02-07T02:48:47.151Z,0
2019-02-07T02:49:48.185Z,0
2019-02-07T02:50:48.891Z,0
2019-02-07T02:51:50.310Z,0
2019-02-07T02:52:51.061Z,0
2019-02-07T02:53:52.643Z,0
2019-02-07T02:54:54.173Z,0
2019-02-07T02:55:56.807Z,0
2019-02-07T02:56:56.521Z,0
2019-02-07T02:57:56.942Z,0
2019-02-07T02:58:57.930Z,0
2019-02-07T02:59:58.369Z,0
2019-02-07T03:00:59.643Z,0
2019-02-07T03:02:00.059Z,0
2019-02-07T03:03:02.051Z,0
2019-02-07T03:04:02.601Z,0
2019-02-07T03:05:05.068Z,0
2019-02-07T03:06:04.142Z,0
2019-02-07T03:07:05.249Z,0
2019-02-07T03:08:06.796Z,0
2019-02-07T03:09:06.799Z,0
2019-02-07T03:10:08.543Z,0
2019-02-07T03:11:09.268Z,0
2019-02-07T03:12:10.239Z,0
2019-02-07T03:13:11.220Z,0
2019-02-07T03:14:14.151Z,0
2019-02-07T03:15:12.645Z,0
2019-02-07T03:16:13.369Z,0
2019-02-07T03:17:13.821Z,0
2019-02-07T03:18:14.538Z,0
2019-02-07T03:19:14.965Z,0
2019-02-07T03:20:15.669Z,0
2019-02-07T03:21:16.091Z,0
2019-02-07T03:22:18.457Z,0
2019-02-07T03:23:17.411Z,0
2019-02-07T03:24:17.927Z,0
2019-02-07T03:25:18.625Z,0
2019-02-07T03:26:20.619Z,0
2019-02-07T03:27:21.051Z,0
2019-02-07T03:28:22.033Z,0
2019-02-07T03:29:22.173Z,0
2019-02-07T03:30:24.734Z,0
2019-02-07T03:31:27.941Z,0
2019-02-07T03:32:26.329Z,0
2019-02-07T03:33:28.004Z,0
2019-02-07T03:34:27.631Z,0
2019-02-07T03:35:27.335Z,0
2019-02-07T03:36:28.036Z,0
2019-02-07T03:37:28.620Z,0
2019-02-07T03:38:30.053Z,0
2019-02-07T03:39:32.207Z,0
2019-02-07T03:40:32.093Z,0
2019-02-07T03:41:32.804Z,0
2019-02-07T03:42:33.523Z,0
2019-02-07T03:43:34.674Z,0
2019-02-07T03:44:35.372Z,0
2019-02-07T03:45:36.642Z,0
2019-02-07T03:46:36.639Z,0
2019-02-07T03:47:37.536Z,0
2019-02-07T03:48:40.071Z,0
2019-02-07T03:49:38.925Z,0
2019-02-07T03:50:39.343Z,0
2019-02-07T03:51:41.320Z,0
2019-02-07T03:52:42.048Z,0
2019-02-07T03:53:42.487Z,0
2019-02-07T03:54:43.773Z,0
2019-02-07T03:55:43.484Z,0
2019-02-07T03:56:45.905Z,0
2019-02-07T03:57:45.326Z,0
2019-02-07T03:58:47.021Z,0
2019-02-07T03:59:47.466Z,0
2019-02-07T04:00:48.726Z,0
2019-02-07T04:01:48.429Z,0
2019-02-07T04:02:49.152Z,0
2019-02-07T04:03:50.705Z,0
2019-02-07T04:04:51.425Z,0
2019-02-07T04:05:54.583Z,0
2019-02-07T04:06:53.661Z,0
2019-02-07T04:07:54.526Z,0
2019-02-07T04:08:56.112Z,0
2019-02-07T04:09:56.833Z,0
2019-02-07T04:10:57.263Z,0
2019-02-07T04:11:58.777Z,0
2019-02-07T04:12:59.566Z,0
2019-02-07T04:14:00.259Z,0
2019-02-07T04:15:02.664Z,0
2019-02-07T04:16:01.799Z,0
2019-02-07T04:16:17.558Z,0
2019-02-07T04:17:15.837Z,0
2019-02-07T04:18:16.656Z,0
2019-02-07T04:19:16.650Z,0
2019-02-07T04:20:17.394Z,0
2019-02-07T04:21:18.438Z,0
2019-02-07T04:22:19.170Z,0
2019-02-07T04:23:20.176Z,0
2019-02-07T04:24:21.783Z,0
2019-02-07T04:25:23.969Z,0
2019-02-07T04:26:23.375Z,0
2019-02-07T04:27:24.085Z,0
2019-02-07T04:28:25.386Z,0
2019-02-07T04:29:25.146Z,0
2019-02-07T04:30:25.326Z,0
2019-02-07T04:31:28.435Z,0
2019-02-07T04:32:27.960Z,0
2019-02-07T04:33:29.389Z,0
2019-02-07T04:34:30.395Z,0
2019-02-07T04:35:30.907Z,0
2019-02-07T04:36:32.193Z,0
2019-02-07T04:37:32.388Z,0
2019-02-07T04:38:33.084Z,0
2019-02-07T04:39:34.065Z,0
2019-02-07T04:40:34.838Z,0
2019-02-07T04:41:35.264Z,0
2019-02-07T04:42:37.753Z,0
2019-02-07T04:43:37.866Z,0
2019-02-07T04:44:38.009Z,0
2019-02-07T04:45:39.997Z,0
2019-02-07T04:46:40.144Z,0
2019-02-07T04:47:41.595Z,0
2019-02-07T04:48:42.593Z,0
2019-02-07T04:49:43.586Z,0
2019-02-07T04:50:43.009Z,0
2019-02-07T04:51:47.476Z,0
2019-02-07T04:52:45.964Z,0
2019-02-07T04:53:46.397Z,0
2019-02-07T04:54:47.670Z,0
2019-02-07T04:55:48.952Z,0
2019-02-07T04:56:49.216Z,0
2019-02-07T04:57:50.178Z,0
2019-02-07T04:58:51.505Z,0
2019-02-07T04:59:52.701Z,0
2019-02-07T05:00:55.101Z,0
2019-02-07T05:01:54.183Z,0
2019-02-07T05:02:54.898Z,0
2019-02-07T05:03:55.757Z,0
2019-02-07T05:04:56.727Z,0
2019-02-07T05:05:57.479Z,0
2019-02-07T05:06:57.619Z,0
2019-02-07T05:07:58.484Z,0
2019-02-07T05:09:02.146Z,0
2019-02-07T05:10:01.237Z,0
2019-02-07T05:11:01.945Z,0
2019-02-07T05:12:02.937Z,0
2019-02-07T05:13:04.195Z,0
2019-02-07T05:14:04.416Z,0
2019-02-07T05:15:05.498Z,0
2019-02-07T05:16:05.511Z,0
2019-02-07T05:17:06.694Z,0
2019-02-07T05:18:08.413Z,0
2019-02-07T05:19:09.633Z,0
2019-02-07T05:20:10.251Z,0
2019-02-07T05:21:10.692Z,0
2019-02-07T05:22:11.116Z,0
2019-02-07T05:23:12.444Z,0
2019-02-07T05:24:13.439Z,0
2019-02-07T05:25:14.487Z,0
2019-02-07T05:26:16.794Z,0
2019-02-07T05:27:16.921Z,0
2019-02-07T05:28:17.339Z,0
2019-02-07T05:29:17.770Z,0
2019-02-07T05:30:20.051Z,0
2019-02-07T05:31:20.776Z,0
2019-02-07T05:32:21.503Z,0
2019-02-07T05:33:23.063Z,0
2019-02-07T05:34:23.602Z,0
2019-02-07T05:35:26.460Z,0
2019-02-07T05:36:24.707Z,0
2019-02-07T05:37:25.153Z,0
2019-02-07T05:38:26.338Z,0
2019-02-07T05:39:26.777Z,0
2019-02-07T05:40:27.514Z,0
2019-02-07T05:41:27.668Z,0
2019-02-07T05:42:29.092Z,0
2019-02-07T05:43:31.654Z,0
2019-02-07T05:44:32.088Z,0
2019-02-07T05:45:31.602Z,0
2019-02-07T05:46:32.319Z,0
2019-02-07T05:47:32.696Z,0
2019-02-07T05:48:33.413Z,0
2019-02-07T05:49:33.397Z,0
2019-02-07T05:50:34.377Z,0
2019-02-07T05:51:35.669Z,0
2019-02-07T05:52:36.387Z,0
2019-02-07T05:53:37.213Z,0
2019-02-07T05:54:37.505Z,0
2019-02-07T05:55:37.479Z,0
2019-02-07T05:56:38.190Z,0
2019-02-07T05:57:38.940Z,0
2019-02-07T05:58:39.414Z,0
2019-02-07T05:59:39.841Z,0
2019-02-07T06:00:43.881Z,0
2019-02-07T06:01:43.304Z,0
2019-02-07T06:02:44.310Z,0
2019-02-07T06:03:44.357Z,0
2019-02-07T06:04:44.790Z,0
2019-02-07T06:05:45.505Z,0
2019-02-07T06:06:47.052Z,0
2019-02-07T06:07:46.287Z,0
2019-02-07T06:08:48.907Z,0
2019-02-07T06:09:52.214Z,0
2019-02-07T06:10:51.700Z,0
2019-02-07T06:11:52.951Z,0
2019-02-07T06:12:53.371Z,0
2019-02-07T06:13:54.079Z,0
2019-02-07T06:14:53.861Z,0
2019-02-07T06:15:57.262Z,0
2019-02-07T06:17:06.731Z,0
2019-02-07T06:18:07.864Z,0
2019-02-07T06:19:09.394Z,5.63
2019-02-07T06:20:09.392Z,5.63
2019-02-07T06:21:09.382Z,5.63
2019-02-07T06:22:10.083Z,5.63
2019-02-07T06:23:10.783Z,11.25
2019-02-07T06:24:11.198Z,11.25
2019-02-07T06:25:12.792Z,11.25
2019-02-07T06:26:14.065Z,11.25
2019-02-07T06:27:14.045Z,11.25
2019-02-07T06:28:16.149Z,16.88
2019-02-07T06:29:15.409Z,16.88
2019-02-07T06:30:16.066Z,16.88
2019-02-07T06:31:16.882Z,16.88
2019-02-07T06:32:17.877Z,22.5
2019-02-07T06:33:18.438Z,22.5
2019-02-07T06:34:32.748Z,22.5
2019-02-07T06:35:33.669Z,22.5
2019-02-07T06:36:33.583Z,22.5
2019-02-07T06:37:34.448Z,28.13
2019-02-07T06:38:38.761Z,28.13
2019-02-07T06:39:36.580Z,28.13
2019-02-07T06:40:36.695Z,33.75
2019-02-07T06:41:37.949Z,33.75
2019-02-07T06:42:38.930Z,39.38
2019-02-07T06:43:39.369Z,39.38
2019-02-07T06:44:40.626Z,45
2019-02-07T06:45:41.184Z,50.63
2019-02-07T06:46:43.173Z,50.63
2019-02-07T06:47:44.879Z,56.25
2019-02-07T06:48:44.856Z,56.25
2019-02-07T06:49:45.003Z,61.88
2019-02-07T06:50:46.352Z,61.88
2019-02-07T06:51:46.769Z,61.88
2019-02-07T06:52:47.495Z,67.5
2019-02-07T06:53:47.639Z,73.13
2019-02-07T06:54:48.802Z,73.13
2019-02-07T06:55:52.311Z,90
2019-02-07T06:56:50.457Z,95.63
2019-02-07T06:57:51.905Z,95.63
2019-02-07T06:58:56.764Z,101.25
2019-02-07T06:59:53.368Z,101.25
2019-02-07T07:00:53.803Z,106.88
2019-02-07T07:01:55.049Z,106.88
2019-02-07T07:02:57.085Z,106.88
2019-02-07T07:03:59.321Z,112.5
2019-02-07T07:04:59.578Z,118.13
2019-02-07T07:05:57.273Z,123.75
2019-02-07T07:06:59.936Z,123.75
2019-02-07T07:07:59.017Z,129.38
2019-02-07T07:08:59.287Z,135
2019-02-07T07:10:00.044Z,135
2019-02-07T07:11:01.490Z,140.63
2019-02-07T07:12:02.195Z,146.25
2019-02-07T07:13:03.685Z,151.88
2019-02-07T07:14:04.645Z,157.5
2019-02-07T07:15:07.077Z,163.13
2019-02-07T07:16:06.354Z,168.75
2019-02-07T07:17:07.785Z,174.38
2019-02-07T07:18:09.049Z,180
2019-02-07T07:19:10.066Z,191.25
2019-02-07T07:20:13.353Z,196.88
2019-02-07T07:21:14.904Z,202.5
2019-02-07T07:22:14.643Z,236.25
2019-02-07T07:23:17.672Z,399.38
2019-02-07T07:24:16.921Z,551.25
2019-02-07T07:25:17.654Z,590.63
2019-02-07T07:26:17.888Z,495
2019-02-07T07:27:20.626Z,427.5
2019-02-07T07:28:20.953Z,433.13
2019-02-07T07:29:21.297Z,393.75
2019-02-07T07:30:21.738Z,416.25
2019-02-07T07:31:22.974Z,517.5
2019-02-07T07:32:25.169Z,523.13
2019-02-07T07:33:25.082Z,433.13
2019-02-07T07:34:25.656Z,399.38
2019-02-07T07:35:25.653Z,421.88
2019-02-07T07:36:27.064Z,354.38
2019-02-07T07:37:27.785Z,315
2019-02-07T07:38:28.801Z,326.25
2019-02-07T07:39:29.245Z,337.5
2019-02-07T07:40:31.414Z,376.88
2019-02-07T07:41:31.839Z,562.5
2019-02-07T07:42:33.731Z,731.25
2019-02-07T07:43:33.883Z,753.75
2019-02-07T07:44:34.863Z,641.25
2019-02-07T07:45:35.010Z,635.63
2019-02-07T07:46:36.020Z,708.75
2019-02-07T07:47:38.336Z,725.63
2019-02-07T07:48:39.385Z,697.5
2019-02-07T07:49:41.464Z,641.25
2019-02-07T07:50:41.241Z,523.13
2019-02-07T07:51:41.422Z,495
2019-02-07T07:52:41.980Z,478.13
2019-02-07T07:53:42.701Z,416.25
2019-02-07T07:54:43.132Z,405
2019-02-07T07:55:44.569Z,410.63
2019-02-07T07:56:45.149Z,438.75
2019-02-07T07:57:45.585Z,421.88
2019-02-07T07:58:48.565Z,444.38
2019-02-07T07:59:47.608Z,455.63
2019-02-07T08:00:47.811Z,444.38
2019-02-07T08:01:48.555Z,478.13
2019-02-07T08:02:49.343Z,500.63
2019-02-07T08:03:50.065Z,495
2019-02-07T08:04:50.519Z,450
2019-02-07T08:05:54.661Z,455.63
2019-02-07T08:06:54.946Z,489.38
2019-02-07T08:07:54.242Z,573.75
2019-02-07T08:08:54.671Z,630
2019-02-07T08:09:56.099Z,630
2019-02-07T08:10:57.142Z,675
2019-02-07T08:11:57.302Z,630
2019-02-07T08:12:58.443Z,523.13
2019-02-07T08:13:59.427Z,500.63
2019-02-07T08:15:00.505Z,534.38
2019-02-07T08:16:04.060Z,596.25
2019-02-07T08:17:02.572Z,675
2019-02-07T08:18:03.311Z,658.13
2019-02-07T08:19:03.481Z,568.13
2019-02-07T08:20:04.640Z,534.38
2019-02-07T08:21:06.935Z,545.63
2019-02-07T08:22:08.063Z,579.38
2019-02-07T08:23:08.797Z,675
2019-02-07T08:24:09.780Z,798.75
2019-02-07T08:25:11.987Z,883.13
2019-02-07T08:26:11.239Z,883.13
2019-02-07T08:27:12.112Z,871.88
2019-02-07T08:28:13.383Z,843.75
2019-02-07T08:29:13.377Z,826.88
2019-02-07T08:30:14.096Z,810
2019-02-07T08:31:15.107Z,720
2019-02-07T08:32:15.535Z,652.5
2019-02-07T08:33:18.160Z,618.75
2019-02-07T08:34:17.609Z,624.38
2019-02-07T08:35:17.875Z,618.75
2019-02-07T08:36:18.869Z,585
2019-02-07T08:37:19.352Z,601.88
2019-02-07T08:38:19.953Z,635.63
2019-02-07T08:39:20.390Z,714.38
2019-02-07T08:40:22.377Z,804.38
2019-02-07T08:41:22.745Z,843.75
2019-02-07T08:42:25.737Z,939.38
2019-02-07T08:43:27.097Z,973.13
2019-02-07T08:44:26.262Z,967.5
2019-02-07T08:45:27.342Z,950.63
2019-02-07T08:46:28.315Z,1012.5
2019-02-07T08:47:29.525Z,1102.5
2019-02-07T08:48:30.086Z,1209.38
2019-02-07T08:49:30.241Z,1305
2019-02-07T08:50:31.734Z,1215
2019-02-07T08:51:33.380Z,1130.63
2019-02-07T08:52:32.582Z,1192.5
2019-02-07T08:53:33.647Z,1068.75
2019-02-07T08:54:34.103Z,990
2019-02-07T08:55:36.916Z,1023.75
2019-02-07T08:56:37.640Z,950.63
2019-02-07T08:57:38.574Z,905.63
2019-02-07T08:58:39.202Z,1085.63
2019-02-07T08:59:43.703Z,1198.13
2019-02-07T09:00:40.847Z,1147.5
2019-02-07T09:01:41.330Z,978.75
2019-02-07T09:02:54.095Z,798.75
2019-02-07T09:03:55.230Z,759.38
2019-02-07T09:04:55.943Z,770.63
2019-02-07T09:05:56.662Z,781.88
2019-02-07T09:06:58.099Z,776.25
2019-02-07T09:07:59.686Z,793.13
2019-02-07T09:09:00.117Z,798.75
2019-02-07T09:10:02.033Z,804.38
2019-02-07T09:11:01.482Z,804.38
2019-02-07T09:12:04.897Z,804.38
2019-02-07T09:13:03.705Z,815.63
2019-02-07T09:14:04.230Z,905.63
2019-02-07T09:15:05.219Z,894.38
2019-02-07T09:16:06.511Z,855
2019-02-07T09:17:06.516Z,860.63
2019-02-07T09:18:19.058Z,826.88
2019-02-07T09:19:20.283Z,787.5
2019-02-07T09:20:20.823Z,810
2019-02-07T09:21:22.465Z,849.38
2019-02-07T09:22:25.262Z,922.5
2019-02-07T09:23:22.847Z,990
2019-02-07T09:24:23.570Z,990
2019-02-07T09:25:23.554Z,950.63
2019-02-07T09:26:24.125Z,888.75
2019-02-07T09:27:25.097Z,832.5
2019-02-07T09:28:26.083Z,720
2019-02-07T09:29:28.839Z,652.5
2019-02-07T09:30:27.252Z,641.25
2019-02-07T09:31:28.294Z,630
2019-02-07T09:32:28.046Z,630
2019-02-07T09:33:29.769Z,624.38
2019-02-07T09:34:29.484Z,630
2019-02-07T09:35:30.468Z,630
2019-02-07T09:36:30.958Z,630
2019-02-07T09:37:33.007Z,624.38
2019-02-07T09:38:32.691Z,624.38
2019-02-07T09:39:34.147Z,618.75
2019-02-07T09:40:34.773Z,618.75
2019-02-07T09:41:35.102Z,618.75
2019-02-07T09:42:35.557Z,624.38
2019-02-07T09:43:40.612Z,630
2019-02-07T09:44:37.658Z,641.25
2019-02-07T09:45:38.595Z,646.88
2019-02-07T09:46:41.419Z,646.88
2019-02-07T09:47:40.541Z,635.63
2019-02-07T09:48:41.266Z,641.25
2019-02-07T09:49:42.826Z,646.88
2019-02-07T09:50:43.000Z,652.5
2019-02-07T09:51:45.533Z,663.75
2019-02-07T09:52:45.073Z,691.88
2019-02-07T09:53:46.747Z,770.63
2019-02-07T09:54:47.487Z,742.5
2019-02-07T09:55:47.748Z,787.5
2019-02-07T09:56:49.070Z,781.88
2019-02-07T09:57:48.760Z,781.88
2019-02-07T09:58:48.995Z,736.88
2019-02-07T09:59:49.997Z,720
2019-02-07T10:00:51.267Z,697.5
2019-02-07T10:01:52.089Z,697.5
2019-02-07T10:02:52.795Z,691.88
2019-02-07T10:03:56.089Z,697.5
2019-02-07T10:04:55.192Z,748.13
2019-02-07T10:05:55.634Z,770.63
2019-02-07T10:06:56.625Z,770.63
2019-02-07T10:07:57.794Z,748.13
2019-02-07T10:08:57.866Z,753.75
2019-02-07T10:09:59.441Z,697.5
2019-02-07T10:10:59.882Z,697.5
2019-02-07T10:12:02.874Z,703.13
2019-02-07T10:13:03.643Z,720
2019-02-07T10:14:03.316Z,731.25
2019-02-07T10:15:04.320Z,742.5
2019-02-07T10:16:18.363Z,731.25
2019-02-07T10:17:17.711Z,742.5
2019-02-07T10:18:18.145Z,742.5
2019-02-07T10:19:18.586Z,759.38
2019-02-07T10:20:19.582Z,770.63
2019-02-07T10:21:25.715Z,765
2019-02-07T10:21:38.698Z,765
2019-02-07T10:21:50.471Z,765
2019-02-07T10:22:02.057Z,765
2019-02-07T10:22:15.737Z,770.63
2019-02-07T10:22:25.344Z,770.63
2019-02-07T10:23:26.363Z,787.5
2019-02-07T10:24:24.188Z,804.38
2019-02-07T10:25:24.456Z,810
2019-02-07T10:26:24.896Z,843.75
2019-02-07T10:27:26.635Z,849.38
2019-02-07T10:28:27.651Z,883.13
2019-02-07T10:29:28.727Z,849.38
2019-02-07T10:30:29.455Z,838.13
2019-02-07T10:31:31.492Z,798.75
2019-02-07T10:32:31.473Z,770.63
2019-02-07T10:33:31.732Z,838.13
2019-02-07T10:34:32.757Z,826.88
2019-02-07T10:35:45.470Z,855
2019-02-07T10:36:47.073Z,877.5
2019-02-07T10:37:45.938Z,905.63
2019-02-07T10:38:47.648Z,967.5
2019-02-07T10:39:51.848Z,967.5
2019-02-07T10:40:49.493Z,911.25
2019-02-07T10:41:51.450Z,933.75
2019-02-07T10:42:51.184Z,1040.63
2019-02-07T10:43:51.629Z,1068.75
2019-02-07T10:44:52.338Z,860.63
2019-02-07T10:45:52.781Z,877.5
2019-02-07T10:46:53.387Z,770.63
2019-02-07T10:47:54.393Z,765
2019-02-07T10:48:54.822Z,765
2019-02-07T10:50:02.063Z,787.5
2019-02-07T10:50:10.600Z,781.88
2019-02-07T10:51:10.784Z,776.25
2019-02-07T10:52:11.850Z,776.25
2019-02-07T10:53:14.187Z,759.38
2019-02-07T10:54:13.710Z,781.88
2019-02-07T10:55:14.414Z,781.88
2019-02-07T10:56:15.124Z,776.25
2019-02-07T10:57:19.609Z,765
2019-02-07T10:58:17.813Z,714.38
2019-02-07T10:59:20.905Z,703.13
2019-02-07T11:00:20.558Z,663.75
2019-02-07T11:01:21.752Z,635.63
2019-02-07T11:02:23.896Z,613.13
2019-02-07T11:03:23.283Z,601.88
2019-02-07T11:04:23.678Z,590.63
2019-02-07T11:05:24.180Z,585
2019-02-07T11:06:25.202Z,585
2019-02-07T11:07:28.560Z,585
2019-02-07T11:08:27.102Z,579.38
2019-02-07T11:09:30.478Z,573.75
2019-02-07T11:10:31.871Z,568.13
2019-02-07T11:11:31.785Z,562.5
2019-02-07T11:12:32.234Z,556.88
2019-02-07T11:13:32.939Z,556.88
2019-02-07T11:14:33.939Z,551.25
2019-02-07T11:15:35.223Z,540
2019-02-07T11:16:34.949Z,540
2019-02-07T11:17:35.945Z,540
2019-02-07T11:18:40.355Z,545.63
2019-02-07T11:19:44.280Z,556.88
2019-02-07T11:19:54.366Z,556.88
2019-02-07T11:20:52.336Z,590.63
2019-02-07T11:21:55.642Z,613.13
2019-02-07T11:22:53.201Z,652.5
2019-02-07T11:23:55.015Z,748.13
2019-02-07T11:24:56.677Z,804.38
2019-02-07T11:25:57.303Z,781.88
2019-02-07T11:27:01.196Z,731.25
2019-02-07T11:28:13.423Z,675
2019-02-07T11:29:14.333Z,641.25
2019-02-07T11:30:18.111Z,624.38
2019-02-07T11:31:16.827Z,613.13
2019-02-07T11:32:18.770Z,590.63
2019-02-07T11:33:19.025Z,573.75
2019-02-07T11:34:19.172Z,556.88
2019-02-07T11:35:20.188Z,551.25
2019-02-07T11:36:21.474Z,534.38
2019-02-07T11:37:22.033Z,528.75
2019-02-07T11:38:23.400Z,511.88
2019-02-07T11:39:23.913Z,506.25
2019-02-07T11:40:24.637Z,495
2019-02-07T11:41:27.811Z,483.75
2019-02-07T11:42:26.454Z,483.75
2019-02-07T11:43:26.893Z,472.5
2019-02-07T11:44:27.891Z,461.25
2019-02-07T11:45:28.111Z,455.63
2019-02-07T11:46:28.283Z,455.63
2019-02-07T11:47:30.560Z,450
2019-02-07T11:48:29.721Z,450
2019-02-07T11:49:16.180Z,444.38
2019-02-07T11:50:15.858Z,444.38
2019-02-07T11:51:17.124Z,438.75
2019-02-07T11:52:17.300Z,433.13
2019-02-07T11:53:17.525Z,427.5
2019-02-07T11:54:18.059Z,416.25
2019-02-07T11:55:20.074Z,410.63
2019-02-07T11:56:26.347Z,399.38
2019-02-07T11:56:33.299Z,399.38
2019-02-07T11:57:38.725Z,393.75
2019-02-07T11:57:46.287Z,393.75
2019-02-07T11:58:46.886Z,388.13
2019-02-07T11:59:54.524Z,382.5
2019-02-07T12:00:06.646Z,382.5
2019-02-07T12:00:20.217Z,376.88
2019-02-07T12:00:32.594Z,376.88
2019-02-07T12:00:41.686Z,376.88
2019-02-07T12:01:39.483Z,371.25
2019-02-07T12:02:40.208Z,365.63
2019-02-07T12:03:40.367Z,360
2019-02-07T12:04:42.390Z,360
2019-02-07T12:05:42.678Z,360
2019-02-07T12:06:44.302Z,365.63
2019-02-07T12:07:45.876Z,371.25
2019-02-07T12:08:44.146Z,376.88
2019-02-07T12:09:44.860Z,382.5
2019-02-07T12:10:48.369Z,388.13
2019-02-07T12:11:49.205Z,393.75
2019-02-07T12:12:46.102Z,399.38
2019-02-07T12:13:46.829Z,410.63
2019-02-07T12:14:47.361Z,421.88
2019-02-07T12:15:50.469Z,438.75
2019-02-07T12:16:49.782Z,438.75
2019-02-07T12:17:49.960Z,444.38
2019-02-07T12:18:49.758Z,444.38
2019-02-07T12:19:49.977Z,444.38
2019-02-07T12:20:50.412Z,444.38
2019-02-07T12:21:51.025Z,438.75
2019-02-07T12:22:52.470Z,433.13
2019-02-07T12:23:55.046Z,427.5
2019-02-07T12:24:53.648Z,416.25
2019-02-07T12:25:54.094Z,416.25
2019-02-07T12:26:54.808Z,416.25
2019-02-07T12:27:55.857Z,416.25
2019-02-07T12:28:56.623Z,416.25
2019-02-07T12:29:58.177Z,421.88
2019-02-07T12:30:59.483Z,421.88
2019-02-07T12:31:59.715Z,427.5
2019-02-07T12:33:02.325Z,427.5
2019-02-07T12:34:01.174Z,421.88
2019-02-07T12:35:02.233Z,416.25
2019-02-07T12:36:03.150Z,416.25
2019-02-07T12:37:03.293Z,421.88
2019-02-07T12:38:03.456Z,410.63
2019-02-07T12:39:07.459Z,410.63
2019-02-07T12:40:04.894Z,416.25
2019-02-07T12:41:06.775Z,416.25
2019-02-07T12:42:09.055Z,410.63
2019-02-07T12:43:09.449Z,405
2019-02-07T12:44:10.620Z,399.38
2019-02-07T12:45:11.093Z,393.75
2019-02-07T12:46:11.798Z,388.13
2019-02-07T12:47:12.528Z,376.88
2019-02-07T12:48:12.971Z,365.63
2019-02-07T12:49:14.692Z,354.38
2019-02-07T12:50:16.623Z,348.75
2019-02-07T12:51:16.419Z,343.13
2019-02-07T12:52:17.310Z,337.5
2019-02-07T12:53:17.497Z,331.88
2019-02-07T12:54:18.225Z,320.63
2019-02-07T12:55:18.391Z,315
2019-02-07T12:56:19.224Z,309.38
2019-02-07T12:57:20.049Z,303.75
2019-02-07T12:58:21.851Z,298.13
2019-02-07T12:59:24.810Z,292.5
2019-02-07T13:00:27.712Z,292.5
2019-02-07T13:00:37.492Z,292.5
2019-02-07T13:01:36.539Z,286.88
2019-02-07T13:02:36.637Z,286.88
2019-02-07T13:03:37.845Z,292.5
2019-02-07T13:04:38.715Z,286.88
2019-02-07T13:05:38.881Z,292.5
2019-02-07T13:06:39.592Z,286.88
2019-02-07T13:07:40.855Z,286.88
2019-02-07T13:08:42.135Z,286.88
2019-02-07T13:09:43.638Z,286.88
2019-02-07T13:11:00.315Z,286.88
2019-02-07T13:11:59.617Z,286.88
2019-02-07T13:12:58.257Z,286.88
2019-02-07T13:13:59.514Z,292.5
2019-02-07T13:15:01.306Z,292.5
2019-02-07T13:16:01.732Z,298.13
2019-02-07T13:17:03.439Z,303.75
2019-02-07T13:18:06.019Z,303.75
2019-02-07T13:19:05.385Z,303.75
2019-02-07T13:20:06.187Z,303.75
2019-02-07T13:21:10.018Z,309.38
2019-02-07T13:21:23.585Z,309.38
2019-02-07T13:21:32.230Z,309.38
2019-02-07T13:22:30.998Z,315
2019-02-07T13:23:32.156Z,320.63
2019-02-07T13:24:33.923Z,331.88
2019-02-07T13:25:33.151Z,326.25
2019-02-07T13:26:34.494Z,331.88
2019-02-07T13:27:34.275Z,331.88
2019-02-07T13:28:35.568Z,331.88
2019-02-07T13:29:35.804Z,331.88
2019-02-07T13:30:39.639Z,331.88
2019-02-07T13:30:48.439Z,331.88
2019-02-07T13:31:49.167Z,331.88
2019-02-07T13:32:50.874Z,337.5
2019-02-07T13:33:51.501Z,331.88